首页
METAR-TAF:

METAR-TAF

机场 :

Gogebic-Iron County Airport

Ironwood, 密歇根州, 美国

纬度: 46-32N, 经度: 090-08W, 海拔: 375米

当前天气观测

该预报发布于16分钟前的21:24 UTC
风速10节,风向,有时为16节阵风
温度 0°C
湿度 93%
气压 1005 hPa
能見度: 1.6公里
阴天层高于400英尺
小雪, 轻雾

METAR: KIWD 292124Z AUTO 36010G16KT 1SM -SN BR OVC004 00/M01 A2968 RMK AO2 P0002 FZRANO RVRNO

时间: 17:40 (21:40 UTC)

预报

该预报发布于4小时和6分钟前的17:34 UTC
预报有效从29日的 18点(UTC)到 30日的 18点(UTC)
风速14节,风向,有时为23节阵风
能見度: 1.6公里
阴天层高于400英尺
小阵雨, 雪, 轻雾
从 30日的 0300点(UTC)
风速14节,风向,有时为23节阵风
能見度: 3.2公里
阴天层高于700英尺
小阵雪, 雨
从 30日的 0700点(UTC)
风速9节,风向
能見度: 10公里
多云层高于2500英尺
从 30日的 1200点(UTC)
风速6节,风向
能見度: 10公里
散云层高于5000英尺

TAF: KIWD 291734Z 2918/3018 01014G23KT 1SM -SHRASN BR OVC004 FM300300 36014G23KT 2SM -SHSNRA OVC007 FM300700 36009KT P6SM BKN025 FM301200 01006KT P6SM SCT050

超过4000个机场的气象观测和天气预报(METAR&TAF报告)。

可查询的气象台以黄色和红色小点在地图上表示。

将鼠标移到小点上方,可查看气象台名称。

然后点击查看天气观测和预报。

如需切换地图:点击带黑十字的绿色按钮放大地图;点击带横线的绿色按钮缩小地图;或者点击绿色箭头查看邻近地区的地图。


METAR-TAF: